createdAt,value
2024-04-09T00:01:53.120Z,14.99
2024-04-09T00:04:19.511Z,14.97
2024-04-09T00:06:46.023Z,14.95
2024-04-09T00:09:12.414Z,14.93
2024-04-09T00:11:38.946Z,14.91
2024-04-09T00:14:05.385Z,14.89
2024-04-09T00:16:31.698Z,14.86
2024-04-09T00:18:58.209Z,14.83
2024-04-09T00:21:25.063Z,14.78
2024-04-09T00:23:51.494Z,14.74
2024-04-09T00:26:17.780Z,14.71
2024-04-09T00:28:44.078Z,14.70
2024-04-09T00:31:10.379Z,14.68
2024-04-09T00:33:36.820Z,14.68
2024-04-09T00:36:03.388Z,14.67
2024-04-09T00:38:29.712Z,14.66
2024-04-09T00:40:56.012Z,14.64
2024-04-09T00:43:22.308Z,14.63
2024-04-09T00:45:48.625Z,14.61
2024-04-09T00:48:15.092Z,14.61
2024-04-09T00:50:41.545Z,14.61
2024-04-09T00:53:07.840Z,14.58
2024-04-09T00:55:34.171Z,14.54
2024-04-09T00:58:00.536Z,14.53
2024-04-09T01:00:26.892Z,14.53
2024-04-09T01:02:53.318Z,14.52
2024-04-09T01:05:19.645Z,14.50
2024-04-09T01:07:45.963Z,14.47
2024-04-09T01:10:12.306Z,14.44
2024-04-09T01:12:38.739Z,14.41
2024-04-09T01:15:05.170Z,14.40
2024-04-09T01:17:31.764Z,14.39
2024-04-09T01:19:58.233Z,14.39
2024-04-09T01:22:24.553Z,14.39
2024-04-09T01:24:50.861Z,14.39
2024-04-09T01:27:17.224Z,14.38
2024-04-09T01:29:43.650Z,14.38
2024-04-09T01:32:09.979Z,14.38
2024-04-09T01:34:36.401Z,14.37
2024-04-09T01:37:02.838Z,14.36
2024-04-09T01:39:29.302Z,14.34
2024-04-09T01:41:55.853Z,14.31
2024-04-09T01:44:22.175Z,14.29
2024-04-09T01:46:48.523Z,14.25
2024-04-09T01:49:14.836Z,14.21
2024-04-09T01:51:41.157Z,14.18
2024-04-09T01:54:07.486Z,14.16
2024-04-09T01:56:33.803Z,14.14
2024-04-09T01:59:00.114Z,14.12
2024-04-09T02:01:26.458Z,14.09
2024-04-09T02:03:52.862Z,14.05
2024-04-09T02:06:19.295Z,14.00
2024-04-09T02:08:45.736Z,13.98
2024-04-09T02:11:12.101Z,13.96
2024-04-09T02:13:38.429Z,13.96
2024-04-09T02:16:04.849Z,13.95
2024-04-09T02:18:31.166Z,13.92
2024-04-09T02:20:57.522Z,13.89
2024-04-09T02:23:23.870Z,13.88
2024-04-09T02:25:50.170Z,13.88
2024-04-09T02:28:16.491Z,13.87
2024-04-09T02:30:42.930Z,13.83
2024-04-09T02:33:09.470Z,13.82
2024-04-09T02:35:35.956Z,13.84
2024-04-09T02:38:02.298Z,13.81
2024-04-09T02:40:28.609Z,13.77
2024-04-09T02:42:54.941Z,13.74
2024-04-09T02:45:21.327Z,13.68
2024-04-09T02:47:47.669Z,13.65
2024-04-09T02:50:14.014Z,13.65
2024-04-09T02:52:40.326Z,13.65
2024-04-09T02:55:06.636Z,13.65
2024-04-09T02:57:32.972Z,13.63
2024-04-09T02:59:59.373Z,13.61
2024-04-09T03:02:25.733Z,13.51
2024-04-09T03:04:52.081Z,13.43
2024-04-09T03:07:18.394Z,13.38
2024-04-09T03:09:44.781Z,13.34
2024-04-09T03:12:11.139Z,13.32
2024-04-09T03:14:37.452Z,13.29
2024-04-09T03:17:03.749Z,13.28
2024-04-09T03:19:30.056Z,13.28
2024-04-09T03:21:56.377Z,13.24
2024-04-09T03:24:22.758Z,13.20
2024-04-09T03:26:49.058Z,13.24
2024-04-09T03:29:15.380Z,13.27
2024-04-09T03:31:41.676Z,13.25
2024-04-09T03:34:08.138Z,13.20
2024-04-09T03:36:34.627Z,13.16
2024-04-09T03:39:01.212Z,13.11
2024-04-09T03:41:27.593Z,13.06
2024-04-09T03:43:53.890Z,13.00
2024-04-09T03:46:20.181Z,12.99
2024-04-09T03:48:46.829Z,12.98
2024-04-09T03:51:13.554Z,12.97
2024-04-09T03:53:39.969Z,12.93
2024-04-09T03:56:06.287Z,12.86
2024-04-09T03:58:32.683Z,12.81
2024-04-09T04:00:59.166Z,12.79
2024-04-09T04:03:25.688Z,12.77
2024-04-09T04:05:52.042Z,12.76
2024-04-09T04:08:18.352Z,12.74
2024-04-09T04:10:44.688Z,12.71
2024-04-09T04:13:10.994Z,12.69
2024-04-09T04:15:39.228Z,12.65
2024-04-09T04:18:07.251Z,12.60
2024-04-09T04:20:33.717Z,12.64
2024-04-09T04:23:00.052Z,12.70
2024-04-09T04:25:26.370Z,12.75
2024-04-09T04:27:52.682Z,12.79
2024-04-09T04:30:18.997Z,12.84
2024-04-09T04:32:45.365Z,12.87
2024-04-09T04:35:11.700Z,12.88
2024-04-09T04:37:38.011Z,12.91
2024-04-09T04:40:04.342Z,12.94
2024-04-09T04:42:30.705Z,12.98
2024-04-09T04:44:57.091Z,13.02
2024-04-09T04:47:23.562Z,13.06
2024-04-09T04:49:50.230Z,13.09
2024-04-09T04:52:16.720Z,13.10
2024-04-09T04:54:43.065Z,13.11
2024-04-09T04:57:09.498Z,13.12
2024-04-09T04:59:35.833Z,13.15
2024-04-09T05:02:02.236Z,13.18
2024-04-09T05:04:28.616Z,13.21
2024-04-09T05:06:54.997Z,13.23
2024-04-09T05:09:21.463Z,13.25
2024-04-09T05:11:47.848Z,13.27
2024-04-09T05:14:14.179Z,13.29
2024-04-09T05:16:40.503Z,13.31
2024-04-09T05:19:06.964Z,13.32
2024-04-09T05:21:33.471Z,13.35
2024-04-09T05:23:59.851Z,13.39
2024-04-09T05:26:26.178Z,13.43
2024-04-09T05:28:52.491Z,13.46
2024-04-09T05:31:18.817Z,13.50
2024-04-09T05:33:45.161Z,13.56
2024-04-09T05:36:11.538Z,13.61
2024-04-09T05:38:38.499Z,13.66
2024-04-09T05:41:05.066Z,13.71
2024-04-09T05:43:31.384Z,13.76
2024-04-09T05:45:57.777Z,13.81
2024-04-09T05:48:24.283Z,13.86
2024-04-09T05:50:50.764Z,13.93
2024-04-09T05:53:17.083Z,14.00
2024-04-09T05:55:43.392Z,14.06
2024-04-09T05:58:09.698Z,14.12
2024-04-09T06:00:36.196Z,14.20
2024-04-09T06:03:02.678Z,14.27
2024-04-09T06:05:29.030Z,14.33
2024-04-09T06:07:55.396Z,14.39
2024-04-09T06:10:21.716Z,14.45
2024-04-09T06:12:48.297Z,14.50
2024-04-09T06:15:14.826Z,14.57
2024-04-09T06:17:41.353Z,14.62
2024-04-09T06:20:07.951Z,14.68
2024-04-09T06:22:34.396Z,14.74
2024-04-09T06:25:00.695Z,14.82
2024-04-09T06:27:27.015Z,14.91
2024-04-09T06:29:53.421Z,14.98
2024-04-09T06:32:19.757Z,15.08
2024-04-09T06:34:46.109Z,15.17
2024-04-09T06:37:12.469Z,15.25
2024-04-09T06:39:39.032Z,15.34
2024-04-09T06:42:05.597Z,15.44
2024-04-09T06:44:31.986Z,15.54
2024-04-09T06:46:58.303Z,15.63
2024-04-09T06:49:24.805Z,15.73
2024-04-09T06:51:51.270Z,15.82
2024-04-09T06:54:17.661Z,15.90
2024-04-09T06:56:43.989Z,15.98
2024-04-09T06:59:10.285Z,16.07
2024-04-09T07:01:36.739Z,16.15
2024-04-09T07:04:03.298Z,16.24
2024-04-09T07:06:29.725Z,16.31
2024-04-09T07:08:56.118Z,16.38
2024-04-09T07:11:22.497Z,16.46
2024-04-09T07:13:48.951Z,16.54
2024-04-09T07:16:15.254Z,16.64
2024-04-09T07:18:41.640Z,16.75
2024-04-09T07:21:07.984Z,16.84
2024-04-09T07:23:34.312Z,16.93
2024-04-09T07:26:00.651Z,17.06
2024-04-09T07:28:26.957Z,17.16
2024-04-09T07:30:53.370Z,17.26
2024-04-09T07:33:19.818Z,17.37
2024-04-09T07:35:46.255Z,17.46
2024-04-09T07:38:12.568Z,17.55
2024-04-09T07:40:38.864Z,17.64
2024-04-09T07:43:05.170Z,17.71
2024-04-09T07:45:31.530Z,17.79
2024-04-09T07:47:57.917Z,17.87
2024-04-09T07:50:24.268Z,17.95
2024-04-09T07:52:50.584Z,18.02
2024-04-09T07:55:16.907Z,18.08
2024-04-09T07:57:43.340Z,18.14
2024-04-09T08:00:09.869Z,18.23
2024-04-09T08:02:36.257Z,18.30
2024-04-09T08:05:02.952Z,18.38
2024-04-09T08:07:29.634Z,18.48
2024-04-09T08:09:56.114Z,18.55
2024-04-09T08:12:22.670Z,18.61
2024-04-09T08:14:49.270Z,18.68
2024-04-09T08:17:15.652Z,18.74
2024-04-09T08:19:42.074Z,18.83
2024-04-09T08:22:08.563Z,18.91
2024-04-09T08:24:34.995Z,18.97
2024-04-09T08:27:01.397Z,19.02
2024-04-09T08:29:27.734Z,19.08
2024-04-09T08:31:54.171Z,19.14
2024-04-09T08:34:20.737Z,19.19
2024-04-09T08:36:47.361Z,19.24
2024-04-09T08:39:14.054Z,19.31
2024-04-09T08:41:40.687Z,19.37
2024-04-09T08:44:07.123Z,19.43
2024-04-09T08:46:33.871Z,19.49
2024-04-09T08:49:00.626Z,19.55
2024-04-09T08:51:27.258Z,19.60
2024-04-09T08:53:53.804Z,19.66
2024-04-09T08:56:20.111Z,19.74
2024-04-09T08:58:46.410Z,19.84
2024-04-09T09:01:12.763Z,19.91
2024-04-09T09:03:39.260Z,19.98
2024-04-09T09:06:05.897Z,20.04
2024-04-09T09:08:32.393Z,20.12
2024-04-09T09:10:58.752Z,20.17
2024-04-09T09:13:25.120Z,20.22
2024-04-09T09:15:51.609Z,20.25
2024-04-09T09:18:18.115Z,20.30
2024-04-09T09:20:44.555Z,20.35
2024-04-09T09:23:10.911Z,20.41
2024-04-09T09:25:37.238Z,20.46
2024-04-09T09:28:03.590Z,20.49
2024-04-09T09:30:29.920Z,20.53
2024-04-09T09:32:56.303Z,20.57
2024-04-09T09:35:22.630Z,20.62
2024-04-09T09:37:48.925Z,20.66
2024-04-09T09:40:15.297Z,20.75
2024-04-09T09:42:41.729Z,20.82
2024-04-09T09:45:08.254Z,20.87
2024-04-09T09:47:34.726Z,20.93
2024-04-09T09:50:10.298Z,20.98
2024-04-09T09:52:40.168Z,21.07
2024-04-09T09:55:10.052Z,21.14
2024-04-09T09:57:36.902Z,21.24
2024-04-09T10:00:03.359Z,21.33
2024-04-09T10:02:29.713Z,21.42
2024-04-09T10:04:56.170Z,21.48
2024-04-09T10:07:22.556Z,21.56
2024-04-09T10:09:49.013Z,21.60
2024-04-09T10:12:16.497Z,21.66
2024-04-09T10:14:43.005Z,21.72
2024-04-09T10:17:09.403Z,21.77
2024-04-09T10:19:35.941Z,21.82
2024-04-09T10:22:02.362Z,21.89
2024-04-09T10:24:28.766Z,21.98
2024-04-09T10:26:55.252Z,22.07
2024-04-09T10:29:21.560Z,22.14
2024-04-09T10:31:47.881Z,22.21
2024-04-09T10:34:14.341Z,22.29
2024-04-09T10:36:40.805Z,22.36
2024-04-09T10:39:07.175Z,22.45
2024-04-09T10:41:33.518Z,22.51
2024-04-09T10:43:59.822Z,22.58
2024-04-09T10:46:26.234Z,22.63
2024-04-09T10:48:52.675Z,22.71
2024-04-09T10:51:20.903Z,22.77
2024-04-09T10:53:48.991Z,22.82
2024-04-09T10:56:15.314Z,22.85
2024-04-09T10:58:42.021Z,22.89
2024-04-09T11:01:08.636Z,22.92
2024-04-09T11:03:35.591Z,22.95
2024-04-09T11:06:02.318Z,22.99
2024-04-09T11:08:28.710Z,23.02
2024-04-09T11:10:55.056Z,23.06
2024-04-09T11:13:21.379Z,23.08
2024-04-09T11:15:47.783Z,23.12
2024-04-09T11:18:14.313Z,23.18
2024-04-09T11:20:40.675Z,23.23
2024-04-09T11:23:07.002Z,23.28
2024-04-09T11:25:33.332Z,23.32
2024-04-09T11:27:59.633Z,23.34
2024-04-09T11:30:26.060Z,23.37
2024-04-09T11:32:52.640Z,23.41
2024-04-09T11:35:19.132Z,23.43
2024-04-09T11:37:45.457Z,23.45
2024-04-09T11:40:11.803Z,23.48
2024-04-09T11:42:38.223Z,23.51
2024-04-09T11:45:04.757Z,23.53
2024-04-09T11:47:31.247Z,23.57
2024-04-09T11:49:57.598Z,23.62
2024-04-09T11:52:23.902Z,23.66
2024-04-09T11:54:50.297Z,23.68
2024-04-09T11:57:16.703Z,23.70
2024-04-09T11:59:43.020Z,23.74
2024-04-09T12:02:09.350Z,23.77
2024-04-09T12:04:35.799Z,23.81
2024-04-09T12:07:02.312Z,23.84
2024-04-09T12:09:28.813Z,23.86
2024-04-09T12:11:55.146Z,23.88
2024-04-09T12:14:21.495Z,23.90
2024-04-09T12:16:47.789Z,23.92
2024-04-09T12:19:14.385Z,23.95
2024-04-09T12:21:41.098Z,23.98
2024-04-09T12:24:07.612Z,24.00
2024-04-09T12:26:33.962Z,24.04
2024-04-09T12:29:00.275Z,24.08
2024-04-09T12:31:26.620Z,24.11
2024-04-09T12:33:53.043Z,24.15
2024-04-09T12:36:19.544Z,24.17
2024-04-09T12:38:45.870Z,24.20
2024-04-09T12:41:12.205Z,24.24
2024-04-09T12:43:38.507Z,24.27
2024-04-09T12:46:04.827Z,24.28
2024-04-09T12:48:31.280Z,24.29
2024-04-09T12:50:57.799Z,24.31
2024-04-09T12:53:24.126Z,24.34
2024-04-09T12:55:50.462Z,24.37
2024-04-09T12:58:16.792Z,24.38
2024-04-09T13:01:01.514Z,24.41
2024-04-09T13:03:29.477Z,24.46
2024-04-09T13:05:56.195Z,24.48
2024-04-09T13:08:22.737Z,24.49
2024-04-09T13:10:49.068Z,24.52
2024-04-09T13:13:15.418Z,24.56
2024-04-09T13:18:11.188Z,24.60
2024-04-09T13:20:37.626Z,24.61
2024-04-09T13:23:06.194Z,24.63
2024-04-09T13:25:33.727Z,24.65
2024-04-09T13:28:00.054Z,24.67
2024-04-09T13:30:26.372Z,24.70
2024-04-09T13:32:52.815Z,24.75
2024-04-09T13:35:19.342Z,24.77
2024-04-09T13:37:45.699Z,24.79
2024-04-09T13:40:12.055Z,24.82
2024-04-09T13:42:38.387Z,24.83
2024-04-09T13:45:04.803Z,24.85
2024-04-09T13:47:31.411Z,24.86
2024-04-09T13:49:57.890Z,24.86
2024-04-09T13:52:24.228Z,24.87
2024-04-09T13:54:50.533Z,24.88
2024-04-09T13:57:16.855Z,24.88
2024-04-09T13:59:43.165Z,24.88
2024-04-09T14:02:09.574Z,24.89
2024-04-09T14:04:35.985Z,24.92
2024-04-09T14:07:02.336Z,24.94
2024-04-09T14:09:28.654Z,24.96
2024-04-09T14:11:55.511Z,24.96
2024-04-09T14:14:22.641Z,24.95
2024-04-09T14:16:49.138Z,24.92
2024-04-09T14:19:15.551Z,24.91
2024-04-09T14:21:42.002Z,24.90
2024-04-09T14:24:08.343Z,24.90
2024-04-09T14:26:34.765Z,24.91
2024-04-09T14:29:01.226Z,24.93
2024-04-09T14:31:27.570Z,24.94
2024-04-09T14:33:53.926Z,24.95
2024-04-09T14:36:20.264Z,24.94
2024-04-09T14:38:46.593Z,24.94
2024-04-09T14:41:16.038Z,24.94
2024-04-09T14:43:43.179Z,24.93
2024-04-09T14:46:09.529Z,24.94
2024-04-09T14:48:36.030Z,24.93
2024-04-09T14:51:02.614Z,24.92
2024-04-09T14:53:28.953Z,24.94
2024-04-09T14:55:55.339Z,24.94
2024-04-09T14:58:21.645Z,24.95
2024-04-09T15:00:47.963Z,24.94
2024-04-09T15:03:14.405Z,24.95
2024-04-09T15:05:40.962Z,24.96
2024-04-09T15:08:08.206Z,24.97
2024-04-09T15:10:35.037Z,24.96
2024-04-09T15:13:01.354Z,24.95
2024-04-09T15:15:27.716Z,24.95
2024-04-09T15:17:54.105Z,24.94
2024-04-09T15:20:20.672Z,24.94
2024-04-09T15:22:47.054Z,24.93
2024-04-09T15:25:15.652Z,24.92
2024-04-09T15:27:43.555Z,24.90
2024-04-09T15:30:09.994Z,24.87
2024-04-09T15:32:37.753Z,24.85
2024-04-09T15:35:06.483Z,24.83
2024-04-09T15:37:32.832Z,24.81
2024-04-09T15:39:59.270Z,24.79
2024-04-09T15:42:25.608Z,24.76
2024-04-09T15:44:51.988Z,24.73
2024-04-09T15:47:18.424Z,24.70
2024-04-09T15:49:44.851Z,24.68
2024-04-09T15:52:11.171Z,24.67
2024-04-09T15:54:37.614Z,24.65
2024-04-09T15:57:03.975Z,24.63
2024-04-09T15:59:30.419Z,24.61
2024-04-09T16:01:56.943Z,24.58
2024-04-09T16:04:23.368Z,24.56
2024-04-09T16:06:49.681Z,24.52
2024-04-09T16:09:16.003Z,24.49
2024-04-09T16:11:42.582Z,24.48
2024-04-09T16:14:09.032Z,24.45
2024-04-09T16:16:35.493Z,24.42
2024-04-09T16:19:02.143Z,24.41
2024-04-09T16:21:28.654Z,24.37
2024-04-09T16:23:54.998Z,24.34
2024-04-09T16:26:21.367Z,24.30
2024-04-09T16:28:47.787Z,24.25
2024-04-09T16:31:14.205Z,24.19
2024-04-09T16:33:40.872Z,24.13
2024-04-09T16:36:07.385Z,24.06
2024-04-09T16:38:33.811Z,23.97
2024-04-09T16:41:00.359Z,23.89
2024-04-09T16:43:26.787Z,23.82
2024-04-09T16:45:53.104Z,23.76
2024-04-09T16:48:19.655Z,23.69
2024-04-09T16:50:46.953Z,23.61
2024-04-09T16:53:13.587Z,23.51
2024-04-09T16:55:39.968Z,23.42
2024-04-09T16:58:06.319Z,23.31
2024-04-09T17:00:32.713Z,23.23
2024-04-09T17:02:59.117Z,23.17
2024-04-09T17:05:25.496Z,23.11
2024-04-09T17:07:51.889Z,23.05
2024-04-09T17:10:18.243Z,22.99
2024-04-09T17:12:44.572Z,22.91
2024-04-09T17:15:10.895Z,22.86
2024-04-09T17:17:37.376Z,22.79
2024-04-09T17:20:04.084Z,22.70
2024-04-09T17:22:30.487Z,22.60
2024-04-09T17:24:56.782Z,22.52
2024-04-09T17:27:23.121Z,22.45
2024-04-09T17:29:49.445Z,22.39
2024-04-09T17:32:15.870Z,22.34
2024-04-09T17:34:42.240Z,22.28
2024-04-09T17:37:08.675Z,22.22
2024-04-09T17:39:35.004Z,22.15
2024-04-09T17:42:01.325Z,22.08
2024-04-09T17:44:27.697Z,21.98
2024-04-09T17:46:54.074Z,21.87
2024-04-09T17:49:20.516Z,21.77
2024-04-09T17:51:46.991Z,21.66
2024-04-09T17:54:13.305Z,21.56
2024-04-09T17:56:39.676Z,21.49
2024-04-09T17:59:06.057Z,21.43
2024-04-09T18:01:32.545Z,21.35
2024-04-09T18:03:59.235Z,21.27
2024-04-09T18:06:25.651Z,21.19
2024-04-09T18:08:51.967Z,21.13
2024-04-09T18:11:18.347Z,21.05
2024-04-09T18:13:44.799Z,20.94
2024-04-09T18:16:11.183Z,20.86
2024-04-09T18:18:37.573Z,20.77
2024-04-09T18:21:04.050Z,20.69
2024-04-09T18:23:30.473Z,20.60
2024-04-09T18:25:56.832Z,20.53
2024-04-09T18:28:23.163Z,20.48
2024-04-09T18:30:49.483Z,20.44
2024-04-09T18:33:15.872Z,20.42
2024-04-09T18:35:42.357Z,20.37
2024-04-09T18:38:08.688Z,20.31
2024-04-09T18:40:35.022Z,20.25
2024-04-09T18:43:01.320Z,20.18
2024-04-09T18:45:27.654Z,20.10
2024-04-09T18:47:54.177Z,20.03
2024-04-09T18:50:20.682Z,19.92
2024-04-09T18:52:47.116Z,19.85
2024-04-09T18:55:13.759Z,19.78
2024-04-09T18:57:40.217Z,19.64
2024-04-09T19:00:06.527Z,19.45
2024-04-09T19:02:33.004Z,19.38
2024-04-09T19:04:59.550Z,19.37
2024-04-09T19:07:25.870Z,19.31
2024-04-09T19:09:52.198Z,19.23
2024-04-09T19:12:18.612Z,19.11
2024-04-09T19:14:44.948Z,18.99
2024-04-09T19:17:11.342Z,18.90
2024-04-09T19:19:37.705Z,18.81
2024-04-09T19:22:04.023Z,18.73
2024-04-09T19:24:30.337Z,18.66
2024-04-09T19:26:56.644Z,18.59
2024-04-09T19:29:23.013Z,18.52
2024-04-09T19:31:49.686Z,18.46
2024-04-09T19:34:16.423Z,18.40
2024-04-09T19:36:42.914Z,18.40
2024-04-09T19:39:09.215Z,18.39
2024-04-09T19:41:36.769Z,18.34
2024-04-09T19:44:13.339Z,18.29
2024-04-09T19:46:44.241Z,18.23
2024-04-09T19:49:10.651Z,18.18
2024-04-09T19:51:36.990Z,18.14
2024-04-09T19:54:03.349Z,18.09
2024-04-09T19:56:29.789Z,18.01
2024-04-09T19:58:56.413Z,17.94
2024-04-09T20:01:22.830Z,17.90
2024-04-09T20:03:49.318Z,17.84
2024-04-09T20:06:15.812Z,17.77
2024-04-09T20:08:42.122Z,17.70
2024-04-09T20:11:08.576Z,17.56
2024-04-09T20:13:34.973Z,17.41
2024-04-09T20:16:01.277Z,17.35
2024-04-09T20:18:28.002Z,17.32
2024-04-09T20:20:54.527Z,17.29
2024-04-09T20:23:21.207Z,17.24
2024-04-09T20:25:47.786Z,17.15
2024-04-09T20:28:14.102Z,17.04
2024-04-09T20:30:40.432Z,16.96
2024-04-09T20:33:07.058Z,16.92
2024-04-09T20:35:40.310Z,16.89
2024-04-09T20:38:10.727Z,16.88
2024-04-09T20:40:37.089Z,16.87
2024-04-09T20:43:03.438Z,16.86
2024-04-09T20:45:29.766Z,16.84
2024-04-09T20:47:56.338Z,16.82
2024-04-09T20:50:22.939Z,16.78
2024-04-09T20:52:49.336Z,16.76
2024-04-09T20:55:15.652Z,16.71
2024-04-09T20:57:41.944Z,16.65
2024-04-09T21:00:08.256Z,16.59
2024-04-09T21:02:34.647Z,16.57
2024-04-09T21:05:01.200Z,16.55
2024-04-09T21:07:27.610Z,16.50
2024-04-09T21:09:53.933Z,16.45
2024-04-09T21:12:20.753Z,16.41
2024-04-09T21:14:47.153Z,16.37
2024-04-09T21:17:13.647Z,16.30
2024-04-09T21:19:40.020Z,16.25
2024-04-09T21:22:06.323Z,16.23
2024-04-09T21:24:32.683Z,16.18
2024-04-09T21:26:59.006Z,16.14
2024-04-09T21:29:25.460Z,16.11
2024-04-09T21:31:51.908Z,16.07
2024-04-09T21:34:18.303Z,16.05
2024-04-09T21:36:44.742Z,16.03
2024-04-09T21:39:11.065Z,16.02
2024-04-09T21:41:37.383Z,16.01
2024-04-09T21:44:03.795Z,16.01
2024-04-09T21:46:30.118Z,16.01
2024-04-09T21:48:56.621Z,16.01
2024-04-09T21:51:23.015Z,16.01
2024-04-09T21:53:49.363Z,16.02
2024-04-09T21:56:15.728Z,16.02
2024-04-09T21:58:42.061Z,16.02
2024-04-09T22:01:08.453Z,16.02
2024-04-09T22:03:34.912Z,16.02
2024-04-09T22:06:01.326Z,16.02
2024-04-09T22:08:27.828Z,16.02
2024-04-09T22:10:54.463Z,16.01
2024-04-09T22:13:20.912Z,16.01
2024-04-09T22:15:47.221Z,16.00
2024-04-09T22:18:13.720Z,15.99
2024-04-09T22:20:40.308Z,15.98
2024-04-09T22:23:06.783Z,15.97
2024-04-09T22:25:33.124Z,15.93
2024-04-09T22:27:59.450Z,15.88
2024-04-09T22:30:25.844Z,15.85
2024-04-09T22:32:52.507Z,15.82
2024-04-09T22:35:19.064Z,15.78
2024-04-09T22:37:45.558Z,15.76
2024-04-09T22:40:11.899Z,15.74
2024-04-09T22:42:38.271Z,15.70
2024-04-09T22:45:04.582Z,15.68
2024-04-09T22:47:31.193Z,15.65
2024-04-09T22:49:57.681Z,15.57
2024-04-09T22:52:24.040Z,15.51
2024-04-09T22:54:50.377Z,15.45
2024-04-09T22:57:16.707Z,15.42
2024-04-09T22:59:43.025Z,15.39
2024-04-09T23:02:09.449Z,15.35
2024-04-09T23:04:36.098Z,15.32
2024-04-09T23:07:02.427Z,15.30
2024-04-09T23:09:28.755Z,15.28
2024-04-09T23:11:55.193Z,15.27
2024-04-09T23:14:21.704Z,15.25
2024-04-09T23:16:48.181Z,15.24
2024-04-09T23:19:14.595Z,15.21
2024-04-09T23:21:40.933Z,15.16
2024-04-09T23:24:07.234Z,15.13
2024-04-09T23:26:33.645Z,15.14
2024-04-09T23:28:59.991Z,15.15
2024-04-09T23:31:26.304Z,15.15
2024-04-09T23:33:52.774Z,15.16
2024-04-09T23:36:19.198Z,15.16
2024-04-09T23:38:45.502Z,15.14
2024-04-09T23:41:11.856Z,15.13
2024-04-09T23:43:38.167Z,15.11
2024-04-09T23:46:04.503Z,15.10
2024-04-09T23:48:30.935Z,15.07
2024-04-09T23:50:57.390Z,15.03
2024-04-09T23:53:23.734Z,15.03
2024-04-09T23:55:50.085Z,15.01
2024-04-09T23:58:16.414Z,15.01
